Seven Hills, Ohio
Current Conditions -  °F | °C
As of 6:53 PM on Monday 24 Nov 2014 (Local Time) from KBKL Reporting Station
Overcast Overcast  
Wind Chill: 34°   Ceiling: 4100
Heat Index: 45°   Visibility: 10mi
Dew Point: 32°   Wind: 36mph
Humidity: 60%   Direction: 220°SW
Pressure: 29.65"   Gusts: 48mph
Location:  41.3833°N, 81.6531°W
Report Text: KBKL 242353Z 22031G42KT 10SM OVC041 07/00 A2965 RMK AO2 PK WND 23043/2336 SLP041 T00720000 10156 20072 51054
Loading
Personal Weather Stations






























Interactive Weather Map New forecast layout! Learn more

10-Day Weather Forecast

Advertisements
Track Severe Weather on mobile